sensor_id;sensor_type;location;lat;lon;timestamp;pressure;altitude;pressure_sealevel;temperature;humidity
47809;BME280;33573;38.790;-77.084;2023-08-01T00:01:34;101358.56;;;26.78;25.34
47809;BME280;33573;38.790;-77.084;2023-08-01T00:03:59;101359.72;;;26.25;26.33
47809;BME280;33573;38.790;-77.084;2023-08-01T00:06:25;101363.73;;;26.88;26.08
47809;BME280;33573;38.790;-77.084;2023-08-01T00:08:50;101364.18;;;26.38;26.35
47809;BME280;33573;38.790;-77.084;2023-08-01T00:11:15;101368.64;;;26.03;26.75
47809;BME280;33573;38.790;-77.084;2023-08-01T00:13:41;101372.31;;;26.29;26.54
47809;BME280;33573;38.790;-77.084;2023-08-01T00:16:06;101375.74;;;25.98;26.06
47809;BME280;33573;38.790;-77.084;2023-08-01T00:18:32;101381.37;;;26.14;25.64
47809;BME280;33573;38.790;-77.084;2023-08-01T00:20:57;101387.05;;;26.11;25.87
47809;BME280;33573;38.790;-77.084;2023-08-01T00:23:23;101389.26;;;26.42;25.32
47809;BME280;33573;38.790;-77.084;2023-08-01T00:25:48;101391.27;;;25.93;26.00
47809;BME280;33573;38.790;-77.084;2023-08-01T00:28:13;101388.71;;;25.64;26.44
47809;BME280;33573;38.790;-77.084;2023-08-01T00:30:39;101385.87;;;26.73;26.00
47809;BME280;33573;38.790;-77.084;2023-08-01T00:33:04;101382.05;;;26.05;26.41
47809;BME280;33573;38.790;-77.084;2023-08-01T00:35:30;101385.93;;;26.22;26.48
47809;BME280;33573;38.790;-77.084;2023-08-01T00:37:55;101387.70;;;26.11;26.45
47809;BME280;33573;38.790;-77.084;2023-08-01T00:40:20;101389.57;;;26.37;26.30
47809;BME280;33573;38.790;-77.084;2023-08-01T00:42:46;101390.52;;;26.53;26.28
47809;BME280;33573;38.790;-77.084;2023-08-01T00:45:11;101394.98;;;26.23;26.68
47809;BME280;33573;38.790;-77.084;2023-08-01T00:47:37;101391.74;;;26.54;26.34
47809;BME280;33573;38.790;-77.084;2023-08-01T00:50:03;101391.53;;;26.56;26.48
47809;BME280;33573;38.790;-77.084;2023-08-01T00:52:28;101397.55;;;26.75;26.24
47809;BME280;33573;38.790;-77.084;2023-08-01T00:54:53;101397.00;;;26.76;26.58
47809;BME280;33573;38.790;-77.084;2023-08-01T00:57:18;101399.51;;;26.12;26.72
47809;BME280;33573;38.790;-77.084;2023-08-01T00:59:44;101401.58;;;25.98;27.33
47809;BME280;33573;38.790;-77.084;2023-08-01T01:02:09;101404.95;;;26.01;27.30
47809;BME280;33573;38.790;-77.084;2023-08-01T01:04:35;101407.55;;;26.00;27.42
47809;BME280;33573;38.790;-77.084;2023-08-01T01:07:03;101412.88;;;26.52;27.05
47809;BME280;33573;38.790;-77.084;2023-08-01T01:09:28;101412.30;;;26.68;26.69
47809;BME280;33573;38.790;-77.084;2023-08-01T01:11:51;101417.09;;;26.45;27.10
47809;BME280;33573;38.790;-77.084;2023-08-01T01:14:16;101418.09;;;26.65;27.32
47809;BME280;33573;38.790;-77.084;2023-08-01T01:16:42;101416.95;;;25.35;28.18
47809;BME280;33573;38.790;-77.084;2023-08-01T01:19:08;101420.10;;;26.19;26.57
47809;BME280;33573;38.790;-77.084;2023-08-01T01:21:33;101425.02;;;25.68;26.46
47809;BME280;33573;38.790;-77.084;2023-08-01T01:23:59;101430.14;;;24.89;26.39
47809;BME280;33573;38.790;-77.084;2023-08-01T01:26:23;101439.43;;;24.75;26.14
47809;BME280;33573;38.790;-77.084;2023-08-01T01:28:51;101444.62;;;25.23;25.57
47809;BME280;33573;38.790;-77.084;2023-08-01T01:31:15;101450.40;;;24.96;25.34
47809;BME280;33573;38.790;-77.084;2023-08-01T01:33:40;101450.62;;;24.90;24.90
47809;BME280;33573;38.790;-77.084;2023-08-01T01:36:05;101453.13;;;25.00;24.61
47809;BME280;33573;38.790;-77.084;2023-08-01T01:38:31;101458.04;;;25.13;24.38
47809;BME280;33573;38.790;-77.084;2023-08-01T01:40:56;101461.49;;;25.10;24.23
47809;BME280;33573;38.790;-77.084;2023-08-01T01:43:21;101465.81;;;24.49;24.37
47809;BME280;33573;38.790;-77.084;2023-08-01T01:45:47;101474.03;;;24.60;24.17
47809;BME280;33573;38.790;-77.084;2023-08-01T01:48:12;101478.30;;;24.12;24.50
47809;BME280;33573;38.790;-77.084;2023-08-01T01:50:38;101482.29;;;24.09;24.14
47809;BME280;33573;38.790;-77.084;2023-08-01T01:53:03;101485.55;;;24.44;23.94
47809;BME280;33573;38.790;-77.084;2023-08-01T01:55:29;101486.57;;;24.88;23.19
47809;BME280;33573;38.790;-77.084;2023-08-01T01:57:54;101489.61;;;24.12;23.67
47809;BME280;33573;38.790;-77.084;2023-08-01T02:00:19;101489.09;;;24.42;23.71
47809;BME280;33573;38.790;-77.084;2023-08-01T02:02:45;101493.41;;;24.04;23.69
47809;BME280;33573;38.790;-77.084;2023-08-01T02:05:10;101496.07;;;24.17;23.43
47809;BME280;33573;38.790;-77.084;2023-08-01T02:07:36;101492.35;;;24.00;23.67
47809;BME280;33573;38.790;-77.084;2023-08-01T02:10:01;101501.38;;;24.97;22.69
47809;BME280;33573;38.790;-77.084;2023-08-01T02:12:27;101502.47;;;24.77;23.04
47809;BME280;33573;38.790;-77.084;2023-08-01T02:14:52;101501.70;;;25.18;23.07
47809;BME280;33573;38.790;-77.084;2023-08-01T02:17:17;101505.39;;;24.73;23.31
47809;BME280;33573;38.790;-77.084;2023-08-01T02:19:43;101511.67;;;24.53;23.57
47809;BME280;33573;38.790;-77.084;2023-08-01T02:22:08;101510.33;;;24.73;23.12
47809;BME280;33573;38.790;-77.084;2023-08-01T02:24:34;101507.16;;;24.30;23.54
47809;BME280;33573;38.790;-77.084;2023-08-01T02:26:59;101510.94;;;24.31;23.24
47809;BME280;33573;38.790;-77.084;2023-08-01T02:29:24;101518.00;;;24.81;22.84
47809;BME280;33573;38.790;-77.084;2023-08-01T02:31:50;101519.00;;;24.65;23.24
47809;BME280;33573;38.790;-77.084;2023-08-01T02:34:15;101520.97;;;24.43;23.49
47809;BME280;33573;38.790;-77.084;2023-08-01T02:36:41;101524.94;;;24.66;23.59
47809;BME280;33573;38.790;-77.084;2023-08-01T02:39:06;101527.46;;;24.82;23.68
47809;BME280;33573;38.790;-77.084;2023-08-01T02:41:32;101521.12;;;23.87;24.16
47809;BME280;33573;38.790;-77.084;2023-08-01T02:43:57;101526.27;;;24.58;23.29
47809;BME280;33573;38.790;-77.084;2023-08-01T02:46:22;101527.76;;;24.38;23.39
47809;BME280;33573;38.790;-77.084;2023-08-01T02:48:49;101528.24;;;24.47;23.44
47809;BME280;33573;38.790;-77.084;2023-08-01T02:51:13;101526.87;;;24.23;23.95
47809;BME280;33573;38.790;-77.084;2023-08-01T02:53:39;101528.86;;;24.07;24.29
47809;BME280;33573;38.790;-77.084;2023-08-01T02:56:04;101532.49;;;24.49;24.21
47809;BME280;33573;38.790;-77.084;2023-08-01T02:58:30;101528.95;;;24.28;24.60
47809;BME280;33573;38.790;-77.084;2023-08-01T03:00:55;101533.54;;;24.31;24.77
47809;BME280;33573;38.790;-77.084;2023-08-01T03:03:20;101533.56;;;23.60;25.47
47809;BME280;33573;38.790;-77.084;2023-08-01T03:05:46;101535.66;;;23.82;25.42
47809;BME280;33573;38.790;-77.084;2023-08-01T03:08:11;101538.60;;;24.26;25.20
47809;BME280;33573;38.790;-77.084;2023-08-01T03:10:37;101541.64;;;24.46;25.58
47809;BME280;33573;38.790;-77.084;2023-08-01T03:13:02;101540.52;;;24.21;25.50
47809;BME280;33573;38.790;-77.084;2023-08-01T03:15:28;101541.28;;;23.98;25.82
47809;BME280;33573;38.790;-77.084;2023-08-01T03:17:53;101541.87;;;24.22;25.91
47809;BME280;33573;38.790;-77.084;2023-08-01T03:20:18;101540.79;;;24.22;25.81
47809;BME280;33573;38.790;-77.084;2023-08-01T03:22:44;101539.57;;;23.51;26.19
47809;BME280;33573;38.790;-77.084;2023-08-01T03:25:09;101541.51;;;23.35;25.89
47809;BME280;33573;38.790;-77.084;2023-08-01T03:27:35;101539.86;;;23.59;25.50
47809;BME280;33573;38.790;-77.084;2023-08-01T03:30:00;101541.37;;;24.33;25.01
47809;BME280;33573;38.790;-77.084;2023-08-01T03:32:26;101541.84;;;24.09;25.41
47809;BME280;33573;38.790;-77.084;2023-08-01T03:34:51;101541.52;;;24.06;25.42
47809;BME280;33573;38.790;-77.084;2023-08-01T03:37:17;101540.14;;;24.06;25.61
47809;BME280;33573;38.790;-77.084;2023-08-01T03:39:42;101544.67;;;24.71;25.43
47809;BME280;33573;38.790;-77.084;2023-08-01T03:42:07;101547.60;;;23.83;26.17
47809;BME280;33573;38.790;-77.084;2023-08-01T03:44:33;101551.26;;;23.94;26.25
47809;BME280;33573;38.790;-77.084;2023-08-01T03:46:58;101549.27;;;24.16;26.19
47809;BME280;33573;38.790;-77.084;2023-08-01T03:49:23;101548.20;;;23.76;26.41
47809;BME280;33573;38.790;-77.084;2023-08-01T03:51:49;101546.40;;;23.72;26.58
47809;BME280;33573;38.790;-77.084;2023-08-01T03:54:14;101543.26;;;23.95;26.69
47809;BME280;33573;38.790;-77.084;2023-08-01T03:56:40;101543.96;;;24.29;26.50
47809;BME280;33573;38.790;-77.084;2023-08-01T03:59:05;101541.77;;;23.76;26.81
47809;BME280;33573;38.790;-77.084;2023-08-01T04:01:31;101542.81;;;23.96;26.97
47809;BME280;33573;38.790;-77.084;2023-08-01T04:03:56;101537.51;;;23.90;26.89
47809;BME280;33573;38.790;-77.084;2023-08-01T04:06:22;101540.84;;;24.12;26.65
47809;BME280;33573;38.790;-77.084;2023-08-01T04:08:47;101542.47;;;24.02;27.15
47809;BME280;33573;38.790;-77.084;2023-08-01T04:11:12;101545.81;;;24.19;26.98
47809;BME280;33573;38.790;-77.084;2023-08-01T04:13:38;101546.95;;;24.37;26.62
47809;BME280;33573;38.790;-77.084;2023-08-01T04:16:03;101544.59;;;24.25;26.75
47809;BME280;33573;38.790;-77.084;2023-08-01T04:18:29;101546.10;;;24.57;26.48
47809;BME280;33573;38.790;-77.084;2023-08-01T04:20:54;101545.35;;;25.02;26.13
47809;BME280;33573;38.790;-77.084;2023-08-01T04:23:19;101540.25;;;25.23;26.55
47809;BME280;33573;38.790;-77.084;2023-08-01T04:25:45;101537.51;;;24.19;27.10
47809;BME280;33573;38.790;-77.084;2023-08-01T04:28:11;101539.60;;;24.47;26.94
47809;BME280;33573;38.790;-77.084;2023-08-01T04:30:36;101535.69;;;24.62;27.09
47809;BME280;33573;38.790;-77.084;2023-08-01T04:33:01;101535.62;;;24.39;27.13
47809;BME280;33573;38.790;-77.084;2023-08-01T04:35:27;101538.88;;;24.66;27.43
47809;BME280;33573;38.790;-77.084;2023-08-01T04:37:52;101530.46;;;24.09;27.74
47809;BME280;33573;38.790;-77.084;2023-08-01T04:40:17;101526.36;;;24.07;27.62
47809;BME280;33573;38.790;-77.084;2023-08-01T04:42:43;101526.46;;;24.07;27.61
47809;BME280;33573;38.790;-77.084;2023-08-01T04:45:09;101528.52;;;25.03;27.09
47809;BME280;33573;38.790;-77.084;2023-08-01T04:47:34;101530.19;;;24.24;27.47
47809;BME280;33573;38.790;-77.084;2023-08-01T04:49:59;101533.02;;;24.41;27.31
47809;BME280;33573;38.790;-77.084;2023-08-01T04:52:25;101527.60;;;24.27;27.49
47809;BME280;33573;38.790;-77.084;2023-08-01T04:54:50;101523.74;;;24.58;27.52
47809;BME280;33573;38.790;-77.084;2023-08-01T04:57:15;101526.60;;;23.86;27.98
47809;BME280;33573;38.790;-77.084;2023-08-01T04:59:41;101530.20;;;24.54;27.92
47809;BME280;33573;38.790;-77.084;2023-08-01T05:02:06;101530.80;;;24.31;27.67
47809;BME280;33573;38.790;-77.084;2023-08-01T05:04:32;101533.20;;;24.47;27.88
47809;BME280;33573;38.790;-77.084;2023-08-01T05:06:57;101531.57;;;24.24;28.14
47809;BME280;33573;38.790;-77.084;2023-08-01T05:09:23;101529.03;;;24.12;28.37
47809;BME280;33573;38.790;-77.084;2023-08-01T05:11:48;101527.76;;;24.26;28.22
47809;BME280;33573;38.790;-77.084;2023-08-01T05:14:13;101532.72;;;24.65;28.11
47809;BME280;33573;38.790;-77.084;2023-08-01T05:16:39;101528.56;;;23.67;28.65
47809;BME280;33573;38.790;-77.084;2023-08-01T05:19:04;101523.33;;;23.95;28.64
47809;BME280;33573;38.790;-77.084;2023-08-01T05:21:30;101520.40;;;24.05;28.33
47809;BME280;33573;38.790;-77.084;2023-08-01T05:23:55;101523.23;;;24.83;27.91
47809;BME280;33573;38.790;-77.084;2023-08-01T05:26:21;101522.34;;;24.25;28.38
47809;BME280;33573;38.790;-77.084;2023-08-01T05:28:46;101528.22;;;24.52;27.81
47809;BME280;33573;38.790;-77.084;2023-08-01T05:31:11;101524.43;;;24.41;28.24
47809;BME280;33573;38.790;-77.084;2023-08-01T05:33:37;101524.00;;;24.24;28.27
47809;BME280;33573;38.790;-77.084;2023-08-01T05:36:02;101521.79;;;24.03;28.77
47809;BME280;33573;38.790;-77.084;2023-08-01T05:38:28;101521.39;;;24.40;28.68
47809;BME280;33573;38.790;-77.084;2023-08-01T05:40:53;101522.57;;;24.44;28.68
47809;BME280;33573;38.790;-77.084;2023-08-01T05:43:18;101518.33;;;24.35;28.57
47809;BME280;33573;38.790;-77.084;2023-08-01T05:45:44;101516.11;;;24.31;28.90
47809;BME280;33573;38.790;-77.084;2023-08-01T05:48:10;101519.68;;;24.07;28.75
47809;BME280;33573;38.790;-77.084;2023-08-01T05:50:35;101516.70;;;24.31;28.99
47809;BME280;33573;38.790;-77.084;2023-08-01T05:53:00;101518.00;;;23.95;29.13
47809;BME280;33573;38.790;-77.084;2023-08-01T05:55:26;101517.52;;;24.59;28.82
47809;BME280;33573;38.790;-77.084;2023-08-01T05:57:51;101514.74;;;23.89;29.00
47809;BME280;33573;38.790;-77.084;2023-08-01T06:00:17;101512.80;;;23.38;29.56
47809;BME280;33573;38.790;-77.084;2023-08-01T06:02:42;101515.49;;;24.50;28.63
47809;BME280;33573;38.790;-77.084;2023-08-01T06:05:08;101508.34;;;23.83;29.13
47809;BME280;33573;38.790;-77.084;2023-08-01T06:07:33;101506.15;;;24.00;28.94
47809;BME280;33573;38.790;-77.084;2023-08-01T06:09:58;101505.68;;;23.94;29.28
47809;BME280;33573;38.790;-77.084;2023-08-01T06:12:24;101504.06;;;23.98;29.22
47809;BME280;33573;38.790;-77.084;2023-08-01T06:14:49;101506.52;;;24.26;29.26
47809;BME280;33573;38.790;-77.084;2023-08-01T06:17:15;101506.27;;;24.12;29.42
47809;BME280;33573;38.790;-77.084;2023-08-01T06:19:40;101501.80;;;24.05;29.23
47809;BME280;33573;38.790;-77.084;2023-08-01T06:22:06;101500.70;;;24.01;29.29
47809;BME280;33573;38.790;-77.084;2023-08-01T06:24:31;101501.19;;;24.23;29.09
47809;BME280;33573;38.790;-77.084;2023-08-01T06:26:56;101502.91;;;24.20;29.37
47809;BME280;33573;38.790;-77.084;2023-08-01T06:29:22;101504.90;;;24.23;29.34
47809;BME280;33573;38.790;-77.084;2023-08-01T06:31:47;101504.38;;;23.59;29.82
47809;BME280;33573;38.790;-77.084;2023-08-01T06:34:12;101510.70;;;24.15;29.51
47809;BME280;33573;38.790;-77.084;2023-08-01T06:36:38;101513.08;;;23.44;29.76
47809;BME280;33573;38.790;-77.084;2023-08-01T06:39:03;101518.80;;;23.86;29.85
47809;BME280;33573;38.790;-77.084;2023-08-01T06:41:29;101521.93;;;23.79;29.38
47809;BME280;33573;38.790;-77.084;2023-08-01T06:43:54;101524.64;;;23.36;29.90
47809;BME280;33573;38.790;-77.084;2023-08-01T06:46:20;101526.08;;;24.44;29.23
47809;BME280;33573;38.790;-77.084;2023-08-01T06:48:45;101522.71;;;24.04;29.41
47809;BME280;33573;38.790;-77.084;2023-08-01T06:51:10;101519.80;;;24.14;29.56
47809;BME280;33573;38.790;-77.084;2023-08-01T06:53:36;101520.92;;;24.23;29.25
47809;BME280;33573;38.790;-77.084;2023-08-01T06:56:01;101518.57;;;24.19;29.57
47809;BME280;33573;38.790;-77.084;2023-08-01T06:58:27;101523.09;;;24.12;29.45
47809;BME280;33573;38.790;-77.084;2023-08-01T07:00:52;101521.26;;;23.48;29.93
47809;BME280;33573;38.790;-77.084;2023-08-01T07:03:18;101521.80;;;23.81;30.05
47809;BME280;33573;38.790;-77.084;2023-08-01T07:05:43;101527.65;;;23.97;29.90
47809;BME280;33573;38.790;-77.084;2023-08-01T07:08:08;101529.07;;;23.94;29.93
47809;BME280;33573;38.790;-77.084;2023-08-01T07:10:35;101527.48;;;23.79;30.13
47809;BME280;33573;38.790;-77.084;2023-08-01T07:12:59;101531.14;;;23.64;30.03
47809;BME280;33573;38.790;-77.084;2023-08-01T07:15:25;101533.59;;;23.64;30.35
47809;BME280;33573;38.790;-77.084;2023-08-01T07:17:50;101534.17;;;23.71;30.32
47809;BME280;33573;38.790;-77.084;2023-08-01T07:20:16;101535.58;;;23.63;30.16
47809;BME280;33573;38.790;-77.084;2023-08-01T07:22:41;101538.36;;;23.66;30.35
47809;BME280;33573;38.790;-77.084;2023-08-01T07:25:07;101539.31;;;23.72;30.00
47809;BME280;33573;38.790;-77.084;2023-08-01T07:27:32;101544.91;;;23.81;30.21
47809;BME280;33573;38.790;-77.084;2023-08-01T07:29:57;101550.18;;;23.96;30.11
47809;BME280;33573;38.790;-77.084;2023-08-01T07:32:23;101549.95;;;23.79;30.25
47809;BME280;33573;38.790;-77.084;2023-08-01T07:34:48;101556.29;;;23.30;30.62
47809;BME280;33573;38.790;-77.084;2023-08-01T07:37:14;101554.86;;;23.91;30.20
47809;BME280;33573;38.790;-77.084;2023-08-01T07:39:39;101555.15;;;23.90;30.20
47809;BME280;33573;38.790;-77.084;2023-08-01T07:42:05;101554.97;;;23.52;30.36
47809;BME280;33573;38.790;-77.084;2023-08-01T07:44:31;101553.73;;;23.89;30.18
47809;BME280;33573;38.790;-77.084;2023-08-01T07:46:55;101559.16;;;24.03;29.84
47809;BME280;33573;38.790;-77.084;2023-08-01T07:49:21;101562.74;;;23.42;30.56
47809;BME280;33573;38.790;-77.084;2023-08-01T07:51:46;101564.36;;;23.53;30.73
47809;BME280;33573;38.790;-77.084;2023-08-01T07:54:11;101569.56;;;23.50;30.74
47809;BME280;33573;38.790;-77.084;2023-08-01T07:56:37;101571.08;;;23.78;30.19
47809;BME280;33573;38.790;-77.084;2023-08-01T07:59:02;101571.05;;;23.58;30.74
47809;BME280;33573;38.790;-77.084;2023-08-01T08:01:28;101572.75;;;23.66;30.68
47809;BME280;33573;38.790;-77.084;2023-08-01T08:03:53;101576.89;;;23.55;30.79
47809;BME280;33573;38.790;-77.084;2023-08-01T08:06:19;101576.48;;;23.71;30.58
47809;BME280;33573;38.790;-77.084;2023-08-01T08:08:44;101575.26;;;23.98;30.27
47809;BME280;33573;38.790;-77.084;2023-08-01T08:11:10;101577.43;;;23.54;30.43
47809;BME280;33573;38.790;-77.084;2023-08-01T08:13:35;101581.62;;;23.41;30.94
47809;BME280;33573;38.790;-77.084;2023-08-01T08:16:00;101581.44;;;23.32;31.10
47809;BME280;33573;38.790;-77.084;2023-08-01T08:18:26;101582.17;;;23.38;31.00
47809;BME280;33573;38.790;-77.084;2023-08-01T08:20:51;101589.43;;;23.48;30.96
47809;BME280;33573;38.790;-77.084;2023-08-01T08:23:17;101594.86;;;23.34;31.11
47809;BME280;33573;38.790;-77.084;2023-08-01T08:25:42;101595.48;;;24.37;29.85
47809;BME280;33573;38.790;-77.084;2023-08-01T08:28:08;101602.24;;;24.01;30.32
47809;BME280;33573;38.790;-77.084;2023-08-01T08:30:33;101605.34;;;23.76;30.60
47809;BME280;33573;38.790;-77.084;2023-08-01T08:32:59;101602.76;;;23.68;30.42
47809;BME280;33573;38.790;-77.084;2023-08-01T08:35:24;101604.46;;;23.80;30.59
47809;BME280;33573;38.790;-77.084;2023-08-01T08:37:49;101605.89;;;23.47;31.01
47809;BME280;33573;38.790;-77.084;2023-08-01T08:40:15;101611.86;;;23.68;30.80
47809;BME280;33573;38.790;-77.084;2023-08-01T08:42:40;101617.21;;;24.05;30.38
47809;BME280;33573;38.790;-77.084;2023-08-01T08:45:06;101618.25;;;24.34;30.09
47809;BME280;33573;38.790;-77.084;2023-08-01T08:47:33;101623.48;;;23.83;30.55
47809;BME280;33573;38.790;-77.084;2023-08-01T08:49:56;101622.18;;;23.86;30.60
47809;BME280;33573;38.790;-77.084;2023-08-01T08:52:22;101620.09;;;23.71;30.79
47809;BME280;33573;38.790;-77.084;2023-08-01T08:54:47;101626.44;;;23.90;30.50
47809;BME280;33573;38.790;-77.084;2023-08-01T08:57:13;101627.87;;;23.55;30.95
47809;BME280;33573;38.790;-77.084;2023-08-01T08:59:38;101626.63;;;23.37;31.18
47809;BME280;33573;38.790;-77.084;2023-08-01T09:02:04;101627.55;;;24.10;30.34
47809;BME280;33573;38.790;-77.084;2023-08-01T09:04:29;101631.05;;;23.23;31.04
47809;BME280;33573;38.790;-77.084;2023-08-01T09:07:00;101633.44;;;23.57;30.92
47809;BME280;33573;38.790;-77.084;2023-08-01T09:09:20;101636.22;;;23.69;30.85
47809;BME280;33573;38.790;-77.084;2023-08-01T09:11:46;101634.74;;;24.00;30.46
47809;BME280;33573;38.790;-77.084;2023-08-01T09:14:11;101633.61;;;23.84;30.42
47809;BME280;33573;38.790;-77.084;2023-08-01T09:16:36;101637.34;;;24.01;30.43
47809;BME280;33573;38.790;-77.084;2023-08-01T09:19:02;101635.02;;;23.83;30.65
47809;BME280;33573;38.790;-77.084;2023-08-01T09:21:27;101638.67;;;23.61;30.95
47809;BME280;33573;38.790;-77.084;2023-08-01T09:23:52;101640.88;;;23.61;30.95
47809;BME280;33573;38.790;-77.084;2023-08-01T09:26:19;101639.18;;;23.23;31.11
47809;BME280;33573;38.790;-77.084;2023-08-01T09:28:43;101647.60;;;23.13;31.58
47809;BME280;33573;38.790;-77.084;2023-08-01T09:31:10;101641.31;;;23.39;31.27
47809;BME280;33573;38.790;-77.084;2023-08-01T09:33:39;101642.43;;;23.34;31.35
47809;BME280;33573;38.790;-77.084;2023-08-01T09:35:59;101642.82;;;23.27;31.44
47809;BME280;33573;38.790;-77.084;2023-08-01T09:38:25;101647.40;;;22.93;31.51
47809;BME280;33573;38.790;-77.084;2023-08-01T09:40:50;101642.11;;;23.23;31.44
47809;BME280;33573;38.790;-77.084;2023-08-01T09:43:16;101649.61;;;23.36;31.30
47809;BME280;33573;38.790;-77.084;2023-08-01T09:45:49;101655.32;;;22.98;31.49
47809;BME280;33573;38.790;-77.084;2023-08-01T09:48:06;101658.04;;;22.99;31.78
47809;BME280;33573;38.790;-77.084;2023-08-01T09:50:32;101661.02;;;23.06;31.71
47809;BME280;33573;38.790;-77.084;2023-08-01T09:55:28;101666.03;;;23.49;31.21
47809;BME280;33573;38.790;-77.084;2023-08-01T09:57:49;101670.46;;;23.12;31.63
47809;BME280;33573;38.790;-77.084;2023-08-01T10:00:14;101672.24;;;23.35;31.38
47809;BME280;33573;38.790;-77.084;2023-08-01T10:02:42;101675.33;;;23.01;31.76
47809;BME280;33573;38.790;-77.084;2023-08-01T10:05:05;101677.60;;;23.04;31.78
47809;BME280;33573;38.790;-77.084;2023-08-01T10:07:30;101678.61;;;22.87;32.03
47809;BME280;33573;38.790;-77.084;2023-08-01T10:09:57;101683.33;;;23.14;31.72
47809;BME280;33573;38.790;-77.084;2023-08-01T10:12:22;101682.02;;;22.88;32.04
47809;BME280;33573;38.790;-77.084;2023-08-01T10:14:46;101687.00;;;22.96;31.92
47809;BME280;33573;38.790;-77.084;2023-08-01T10:17:12;101691.73;;;24.74;36.41
47809;BME280;33573;38.790;-77.084;2023-08-01T10:19:38;101699.22;;;23.74;39.10
47809;BME280;33573;38.790;-77.084;2023-08-01T10:22:03;101705.23;;;22.56;41.72
47809;BME280;33573;38.790;-77.084;2023-08-01T10:24:28;101703.85;;;21.95;43.95
47809;BME280;33573;38.790;-77.084;2023-08-01T10:26:53;101703.83;;;21.23;45.06
47809;BME280;33573;38.790;-77.084;2023-08-01T10:29:19;101707.60;;;21.35;45.92
47809;BME280;33573;38.790;-77.084;2023-08-01T10:31:52;101718.08;;;20.44;47.23
47809;BME280;33573;38.790;-77.084;2023-08-01T10:34:13;101725.27;;;20.29;47.32
47809;BME280;33573;38.790;-77.084;2023-08-01T10:36:35;101725.18;;;20.02;48.05
47809;BME280;33573;38.790;-77.084;2023-08-01T10:39:01;101722.97;;;20.58;48.36
47809;BME280;33573;38.790;-77.084;2023-08-01T10:41:28;101727.65;;;20.54;48.33
47809;BME280;33573;38.790;-77.084;2023-08-01T10:43:51;101730.34;;;20.54;48.27
47809;BME280;33573;38.790;-77.084;2023-08-01T10:46:16;101738.17;;;20.92;47.91
47809;BME280;33573;38.790;-77.084;2023-08-01T10:48:51;101742.07;;;20.55;47.69
47809;BME280;33573;38.790;-77.084;2023-08-01T10:51:07;101744.14;;;20.57;47.74
47809;BME280;33573;38.790;-77.084;2023-08-01T10:53:37;101749.22;;;20.20;47.22
47809;BME280;33573;38.790;-77.084;2023-08-01T10:55:58;101750.33;;;20.16;47.26
47809;BME280;33573;38.790;-77.084;2023-08-01T10:58:27;101754.29;;;20.90;46.08
47809;BME280;33573;38.790;-77.084;2023-08-01T11:00:57;101758.43;;;21.08;45.60
47809;BME280;33573;38.790;-77.084;2023-08-01T11:03:14;101764.69;;;20.67;45.44
47809;BME280;33573;38.790;-77.084;2023-08-01T11:05:40;101773.61;;;21.11;45.03
47809;BME280;33573;38.790;-77.084;2023-08-01T11:08:05;101778.95;;;21.71;44.48
47809;BME280;33573;38.790;-77.084;2023-08-01T11:10:31;101780.90;;;21.54;44.04
47809;BME280;33573;38.790;-77.084;2023-08-01T11:12:56;101786.89;;;22.15;43.76
47809;BME280;33573;38.790;-77.084;2023-08-01T11:15:21;101789.46;;;21.99;43.21
47809;BME280;33573;38.790;-77.084;2023-08-01T11:17:48;101793.03;;;21.95;43.67
47809;BME280;33573;38.790;-77.084;2023-08-01T11:20:13;101799.78;;;22.35;42.73
47809;BME280;33573;38.790;-77.084;2023-08-01T11:22:50;101801.10;;;22.29;42.24
47809;BME280;33573;38.790;-77.084;2023-08-01T11:25:04;101801.40;;;22.21;42.79
47809;BME280;33573;38.790;-77.084;2023-08-01T11:27:29;101798.97;;;22.64;41.62
47809;BME280;33573;38.790;-77.084;2023-08-01T11:29:55;101797.26;;;22.74;40.88
47809;BME280;33573;38.790;-77.084;2023-08-01T11:32:20;101799.96;;;22.66;40.67
47809;BME280;33573;38.790;-77.084;2023-08-01T11:34:45;101799.51;;;22.54;40.29
47809;BME280;33573;38.790;-77.084;2023-08-01T11:37:11;101797.44;;;22.71;40.73
47809;BME280;33573;38.790;-77.084;2023-08-01T11:39:36;101796.36;;;23.08;39.77
47809;BME280;33573;38.790;-77.084;2023-08-01T11:42:01;101797.01;;;23.18;39.20
47809;BME280;33573;38.790;-77.084;2023-08-01T11:44:27;101800.02;;;22.91;39.54
47809;BME280;33573;38.790;-77.084;2023-08-01T11:46:51;101800.95;;;23.36;38.47
47809;BME280;33573;38.790;-77.084;2023-08-01T11:49:17;101804.82;;;23.41;37.74
47809;BME280;33573;38.790;-77.084;2023-08-01T11:51:44;101809.74;;;23.76;37.50
47809;BME280;33573;38.790;-77.084;2023-08-01T11:54:08;101808.45;;;23.38;37.48
47809;BME280;33573;38.790;-77.084;2023-08-01T11:56:33;101807.74;;;23.36;37.28
47809;BME280;33573;38.790;-77.084;2023-08-01T11:58:59;101805.58;;;23.43;37.09
47809;BME280;33573;38.790;-77.084;2023-08-01T12:01:24;101807.45;;;23.28;37.50
47809;BME280;33573;38.790;-77.084;2023-08-01T12:03:50;101807.98;;;23.16;37.28
47809;BME280;33573;38.790;-77.084;2023-08-01T12:06:16;101809.09;;;23.29;37.00
47809;BME280;33573;38.790;-77.084;2023-08-01T12:08:41;101813.48;;;22.99;37.37
47809;BME280;33573;38.790;-77.084;2023-08-01T12:11:06;101816.28;;;23.59;36.86
47809;BME280;33573;38.790;-77.084;2023-08-01T12:13:31;101818.37;;;22.82;37.59
47809;BME280;33573;38.790;-77.084;2023-08-01T12:15:57;101819.44;;;23.07;37.16
47809;BME280;33573;38.790;-77.084;2023-08-01T12:18:23;101818.03;;;23.09;37.09
47809;BME280;33573;38.790;-77.084;2023-08-01T12:20:47;101821.77;;;23.06;37.05
47809;BME280;33573;38.790;-77.084;2023-08-01T12:23:13;101823.64;;;23.25;37.02